createdAt,value
2022-08-23T00:01:21.271Z,20.80
2022-08-23T00:03:52.002Z,20.70
2022-08-23T00:06:21.557Z,20.70
2022-08-23T00:08:49.653Z,20.70
2022-08-23T00:11:47.839Z,20.70
2022-08-23T00:14:23.156Z,20.70
2022-08-23T00:16:52.187Z,20.70
2022-08-23T00:19:23.942Z,20.70
2022-08-23T00:21:54.397Z,20.60
2022-08-23T00:24:22.654Z,20.70
2022-08-23T00:27:09.743Z,20.70
2022-08-23T00:29:42.899Z,20.70
2022-08-23T00:32:14.725Z,20.60
2022-08-23T00:34:44.983Z,20.60
2022-08-23T00:37:12.776Z,20.60
2022-08-23T00:39:41.600Z,20.60
2022-08-23T00:42:32.329Z,20.60
2022-08-23T00:45:21.256Z,20.60
2022-08-23T00:47:48.851Z,20.60
2022-08-23T00:50:30.268Z,20.60
2022-08-23T00:53:23.378Z,20.60
2022-08-23T00:55:54.677Z,20.50
2022-08-23T00:58:23.162Z,20.60
2022-08-23T01:00:51.844Z,20.50
2022-08-23T01:03:21.747Z,20.50
2022-08-23T01:05:58.507Z,20.50
2022-08-23T01:08:28.496Z,20.50
2022-08-23T01:11:03.736Z,20.50
2022-08-23T01:13:55.033Z,20.50
2022-08-23T01:16:33.724Z,20.40
2022-08-23T01:19:04.257Z,20.40
2022-08-23T01:21:43.606Z,20.40
2022-08-23T01:24:19.261Z,20.30
2022-08-23T01:27:05.757Z,20.30
2022-08-23T01:29:41.522Z,20.30
2022-08-23T01:32:14.688Z,20.30
2022-08-23T01:34:45.413Z,20.30
2022-08-23T01:37:21.215Z,20.30
2022-08-23T01:39:49.506Z,20.30
2022-08-23T01:42:16.426Z,20.30
2022-08-23T01:44:43.370Z,20.30
2022-08-23T01:47:10.438Z,20.20
2022-08-23T01:49:38.902Z,20.20
2022-08-23T01:52:06.052Z,20.20
2022-08-23T01:54:33.826Z,20.20
2022-08-23T01:57:00.865Z,20.20
2022-08-23T01:59:28.066Z,20.20
2022-08-23T02:01:55.319Z,20.20
2022-08-23T02:04:22.726Z,20.20
2022-08-23T02:06:49.608Z,20.10
2022-08-23T02:09:20.572Z,20.10
2022-08-23T02:11:48.795Z,20.10
2022-08-23T02:14:19.319Z,20.20
2022-08-23T02:17:02.992Z,20.20
2022-08-23T02:19:34.385Z,20.10
2022-08-23T02:22:03.553Z,20.10
2022-08-23T02:24:31.614Z,20.10
2022-08-23T02:27:03.651Z,20.10
2022-08-23T02:29:37.599Z,20.10
2022-08-23T02:32:09.582Z,20.10
2022-08-23T02:34:38.068Z,20.00
2022-08-23T02:37:10.029Z,20.00
2022-08-23T02:39:38.732Z,20.00
2022-08-23T02:42:07.664Z,20.00
2022-08-23T02:44:38.384Z,20.00
2022-08-23T02:47:12.242Z,20.00
2022-08-23T02:49:43.317Z,20.00
2022-08-23T02:52:10.442Z,20.00
2022-08-23T02:54:37.727Z,19.90
2022-08-23T02:57:05.461Z,19.90
2022-08-23T02:59:32.374Z,19.90
2022-08-23T03:01:59.588Z,19.90
2022-08-23T03:04:31.923Z,19.90
2022-08-23T03:06:59.250Z,19.90
2022-08-23T03:09:27.119Z,19.90
2022-08-23T03:11:54.181Z,19.90
2022-08-23T03:14:22.307Z,19.90
2022-08-23T03:16:49.672Z,19.90
2022-08-23T03:19:17.327Z,19.80
2022-08-23T03:21:45.341Z,19.80
2022-08-23T03:24:14.718Z,19.80
2022-08-23T03:26:44.565Z,19.80
2022-08-23T03:29:13.290Z,19.80
2022-08-23T03:31:58.080Z,19.80
2022-08-23T03:34:27.214Z,19.70
2022-08-23T03:36:59.156Z,19.80
2022-08-23T03:39:26.410Z,19.70
2022-08-23T03:41:55.621Z,19.80
2022-08-23T03:44:22.794Z,19.80
2022-08-23T03:46:51.018Z,19.80
2022-08-23T03:49:18.142Z,19.70
2022-08-23T03:51:51.901Z,19.70
2022-08-23T03:54:18.909Z,19.80
2022-08-23T03:57:01.365Z,19.70
2022-08-23T03:59:37.124Z,19.70
2022-08-23T04:02:09.604Z,19.70
2022-08-23T04:04:39.284Z,19.70
2022-08-23T04:07:21.955Z,19.70
2022-08-23T04:09:55.212Z,19.70
2022-08-23T04:12:23.917Z,19.70
2022-08-23T04:14:52.834Z,19.80
2022-08-23T04:17:21.030Z,19.70
2022-08-23T04:19:48.333Z,19.70
2022-08-23T04:22:18.142Z,19.70
2022-08-23T04:24:45.924Z,19.80
2022-08-23T04:27:13.210Z,19.70
2022-08-23T04:29:43.167Z,19.70
2022-08-23T04:32:12.026Z,19.70
2022-08-23T04:34:40.565Z,19.70
2022-08-23T04:37:12.733Z,19.70
2022-08-23T04:39:59.199Z,19.70
2022-08-23T04:42:36.004Z,19.70
2022-08-23T04:45:02.997Z,19.70
2022-08-23T04:47:32.895Z,19.70
2022-08-23T04:50:03.137Z,19.70
2022-08-23T04:52:33.885Z,19.70
2022-08-23T04:55:04.624Z,19.70
2022-08-23T04:57:52.790Z,19.60
2022-08-23T05:00:28.199Z,19.60
2022-08-23T05:03:17.126Z,19.60
2022-08-23T05:06:08.084Z,19.60
2022-08-23T05:11:56.419Z,19.50
2022-08-23T05:14:32.968Z,19.60
2022-08-23T05:17:00.028Z,19.50
2022-08-23T05:19:27.713Z,19.50
2022-08-23T05:21:57.083Z,19.50
2022-08-23T05:24:30.209Z,19.40
2022-08-23T05:26:57.940Z,19.50
2022-08-23T05:29:25.926Z,19.50
2022-08-23T05:31:54.956Z,19.60
2022-08-23T05:34:24.292Z,19.60
2022-08-23T05:36:55.617Z,19.60
2022-08-23T05:39:35.846Z,19.70
2022-08-23T05:42:11.417Z,19.70
2022-08-23T05:44:38.825Z,19.70
2022-08-23T05:47:33.915Z,19.70
2022-08-23T05:50:22.642Z,19.70
2022-08-23T05:52:51.251Z,19.80
2022-08-23T05:55:19.459Z,19.80
2022-08-23T05:58:12.457Z,19.80
2022-08-23T06:00:40.801Z,19.80
2022-08-23T06:03:09.150Z,19.70
2022-08-23T06:05:40.765Z,19.70
2022-08-23T06:08:08.272Z,19.70
2022-08-23T06:10:40.474Z,19.70
2022-08-23T06:13:26.493Z,19.70
2022-08-23T06:15:53.907Z,19.70
2022-08-23T06:18:21.726Z,19.70
2022-08-23T06:21:05.326Z,19.80
2022-08-23T06:23:42.645Z,19.80
2022-08-23T06:26:22.553Z,19.80
2022-08-23T06:28:52.581Z,19.80
2022-08-23T06:31:40.890Z,19.80
2022-08-23T06:34:18.595Z,19.80
2022-08-23T06:37:14.661Z,19.80
2022-08-23T06:40:01.687Z,19.90
2022-08-23T06:42:40.150Z,19.90
2022-08-23T06:45:09.399Z,20.00
2022-08-23T06:47:41.777Z,20.00
2022-08-23T06:50:09.555Z,20.10
2022-08-23T06:52:55.324Z,20.10
2022-08-23T06:55:36.425Z,20.20
2022-08-23T06:58:22.659Z,20.30
2022-08-23T07:01:45.782Z,20.40
2022-08-23T07:04:22.915Z,20.40
2022-08-23T07:06:57.702Z,20.50
2022-08-23T07:09:24.868Z,20.50
2022-08-23T07:11:51.910Z,20.60
2022-08-23T07:14:23.834Z,20.60
2022-08-23T07:17:03.425Z,20.70
2022-08-23T07:19:33.941Z,20.80
2022-08-23T07:22:02.514Z,20.80
2022-08-23T07:24:33.633Z,20.90
2022-08-23T07:27:07.081Z,20.90
2022-08-23T07:29:37.258Z,21.00
2022-08-23T07:32:05.912Z,21.00
2022-08-23T07:34:34.017Z,21.00
2022-08-23T07:37:01.631Z,21.10
2022-08-23T07:39:31.784Z,21.10
2022-08-23T07:42:22.697Z,21.10
2022-08-23T07:44:53.352Z,21.10
2022-08-23T07:47:22.851Z,21.20
2022-08-23T07:49:49.867Z,21.20
2022-08-23T07:52:17.788Z,21.20
2022-08-23T07:54:48.617Z,21.20
2022-08-23T07:57:37.699Z,21.30
2022-08-23T08:00:10.942Z,21.30
2022-08-23T08:02:47.634Z,21.30
2022-08-23T08:05:23.019Z,21.30
2022-08-23T08:07:51.443Z,21.40
2022-08-23T08:10:18.934Z,21.40
2022-08-23T08:12:46.964Z,21.40
2022-08-23T08:15:19.477Z,21.50
2022-08-23T08:17:52.982Z,21.50
2022-08-23T08:20:20.975Z,21.50
2022-08-23T08:23:25.899Z,21.50
2022-08-23T08:26:17.932Z,21.60
2022-08-23T08:28:56.181Z,21.60
2022-08-23T08:31:25.122Z,21.70
2022-08-23T08:33:53.135Z,21.70
2022-08-23T08:36:32.234Z,21.70
2022-08-23T08:39:00.560Z,21.80
2022-08-23T08:42:04.718Z,21.80
2022-08-23T08:44:49.816Z,21.80
2022-08-23T08:47:42.204Z,21.90
2022-08-23T08:50:28.113Z,22.00
2022-08-23T08:53:06.118Z,22.10
2022-08-23T08:55:56.947Z,22.10
2022-08-23T08:58:50.813Z,22.20
2022-08-23T09:01:20.748Z,22.20
2022-08-23T09:03:48.563Z,22.30
2022-08-23T09:06:33.547Z,22.30
2022-08-23T09:09:07.475Z,22.40
2022-08-23T09:12:12.041Z,22.40
2022-08-23T09:14:54.616Z,22.50
2022-08-23T09:17:21.752Z,22.50
2022-08-23T09:19:51.307Z,22.60
2022-08-23T09:22:28.338Z,22.70
2022-08-23T09:24:58.161Z,22.70
2022-08-23T09:27:28.869Z,22.80
2022-08-23T09:30:01.694Z,22.80
2022-08-23T09:32:32.927Z,22.90
2022-08-23T09:35:17.376Z,22.90
2022-08-23T09:37:50.969Z,22.90
2022-08-23T09:40:26.167Z,22.90
2022-08-23T09:43:15.739Z,23.00
2022-08-23T09:45:49.548Z,23.00
2022-08-23T09:48:55.086Z,23.10
2022-08-23T09:51:37.702Z,23.10
2022-08-23T09:54:25.086Z,23.10
2022-08-23T09:57:02.554Z,23.20
2022-08-23T09:59:33.389Z,23.20
2022-08-23T10:02:36.438Z,23.20
2022-08-23T10:05:40.296Z,23.30
2022-08-23T10:08:23.640Z,23.30
2022-08-23T10:11:02.591Z,23.30
2022-08-23T10:13:33.858Z,23.30
2022-08-23T10:16:34.221Z,23.40
2022-08-23T10:19:26.055Z,23.50
2022-08-23T10:22:14.575Z,23.60
2022-08-23T10:25:07.682Z,23.60
2022-08-23T10:28:28.377Z,23.60
2022-08-23T10:31:17.085Z,23.60
2022-08-23T10:33:54.837Z,23.70
2022-08-23T10:36:34.611Z,23.80
2022-08-23T10:39:10.309Z,23.80
2022-08-23T10:42:06.383Z,23.80
2022-08-23T10:44:41.972Z,23.90
2022-08-23T10:47:16.370Z,23.90
2022-08-23T10:49:44.092Z,23.90
2022-08-23T10:52:29.032Z,23.90
2022-08-23T10:55:00.624Z,24.00
2022-08-23T10:57:40.245Z,24.00
2022-08-23T11:00:22.745Z,24.10
2022-08-23T11:03:05.785Z,24.10
2022-08-23T11:05:36.659Z,24.20
2022-08-23T11:08:47.520Z,24.20
2022-08-23T11:12:07.352Z,24.30
2022-08-23T11:14:45.318Z,24.30
2022-08-23T11:17:28.309Z,24.30
2022-08-23T11:19:57.377Z,24.40
2022-08-23T11:22:54.073Z,24.40
2022-08-23T11:25:21.199Z,24.50
2022-08-23T11:27:48.239Z,24.50
2022-08-23T11:30:32.464Z,24.50
2022-08-23T11:33:15.287Z,24.50
2022-08-23T11:35:47.746Z,24.50
2022-08-23T11:38:22.594Z,24.60
2022-08-23T11:40:50.684Z,24.60
2022-08-23T11:43:34.515Z,24.70
2022-08-23T11:46:25.854Z,24.70
2022-08-23T11:49:21.554Z,24.70
2022-08-23T11:52:06.968Z,24.70
2022-08-23T11:54:56.425Z,24.80
2022-08-23T11:57:50.937Z,24.80
2022-08-23T12:00:28.871Z,24.90
2022-08-23T12:03:24.942Z,24.90
2022-08-23T12:05:51.922Z,25.00
2022-08-23T12:08:30.940Z,25.00
2022-08-23T12:11:02.154Z,25.00
2022-08-23T12:13:45.972Z,25.00
2022-08-23T12:16:19.864Z,25.10
2022-08-23T12:18:49.838Z,25.10
2022-08-23T12:21:40.078Z,25.20
2022-08-23T12:24:21.871Z,25.20
2022-08-23T12:27:32.407Z,25.20
2022-08-23T12:30:11.800Z,25.20
2022-08-23T12:32:57.883Z,25.30
2022-08-23T12:35:43.812Z,25.30
2022-08-23T12:38:25.109Z,25.30
2022-08-23T12:40:54.642Z,25.30
2022-08-23T12:43:30.322Z,25.30
2022-08-23T12:46:01.025Z,25.30
2022-08-23T12:48:31.434Z,25.30
2022-08-23T12:51:07.628Z,25.30
2022-08-23T12:53:44.044Z,25.40
2022-08-23T12:56:19.577Z,25.40
2022-08-23T12:58:52.085Z,25.40
2022-08-23T13:01:29.780Z,25.40
2022-08-23T13:04:11.446Z,25.40
2022-08-23T13:06:44.227Z,25.40
2022-08-23T13:09:31.981Z,25.40
2022-08-23T13:12:00.273Z,25.40
2022-08-23T13:14:33.835Z,25.50
2022-08-23T13:17:21.939Z,25.50
2022-08-23T13:20:10.164Z,25.50
2022-08-23T13:22:39.496Z,25.50
2022-08-23T13:25:32.103Z,25.50
2022-08-23T13:28:01.059Z,25.50
2022-08-23T13:30:31.578Z,25.50
2022-08-23T13:33:18.951Z,25.50
2022-08-23T13:35:50.024Z,25.50
2022-08-23T13:38:20.881Z,25.60
2022-08-23T13:41:05.833Z,25.50
2022-08-23T13:43:36.249Z,25.60
2022-08-23T13:46:27.721Z,25.60
2022-08-23T13:49:03.284Z,25.60
2022-08-23T13:51:33.321Z,25.60
2022-08-23T13:54:05.768Z,25.60
2022-08-23T13:56:53.397Z,25.60
2022-08-23T13:59:35.930Z,25.70
2022-08-23T14:02:07.534Z,25.70
2022-08-23T14:04:35.125Z,25.70
2022-08-23T14:07:01.971Z,25.70
2022-08-23T14:09:28.819Z,25.70
2022-08-23T14:11:58.916Z,25.80
2022-08-23T14:14:27.188Z,25.80
2022-08-23T14:16:54.543Z,25.80
2022-08-23T14:22:40.403Z,25.70
2022-08-23T14:25:08.846Z,25.80
2022-08-23T14:27:37.589Z,25.80
2022-08-23T14:30:05.854Z,25.80
2022-08-23T14:32:33.000Z,25.80
2022-08-23T14:35:00.610Z,25.80
2022-08-23T14:40:15.406Z,25.90
2022-08-23T14:42:46.960Z,25.90
2022-08-23T14:45:16.139Z,25.90
2022-08-23T14:47:43.152Z,25.90
2022-08-23T14:50:12.736Z,25.90
2022-08-23T14:52:43.480Z,26.00
2022-08-23T14:55:11.382Z,25.90
2022-08-23T14:57:38.947Z,25.90
2022-08-23T15:00:08.837Z,25.90
2022-08-23T15:02:36.631Z,25.90
2022-08-23T15:05:04.047Z,25.90
2022-08-23T15:07:30.977Z,25.90
2022-08-23T15:09:58.055Z,25.90
2022-08-23T15:15:15.891Z,26.00
2022-08-23T15:17:59.628Z,26.00
2022-08-23T15:20:33.884Z,26.00
2022-08-23T15:23:01.401Z,26.00
2022-08-23T15:25:34.228Z,26.00
2022-08-23T15:28:05.492Z,26.00
2022-08-23T15:30:33.901Z,26.00
2022-08-23T15:33:01.136Z,26.00
2022-08-23T15:35:29.144Z,26.00
2022-08-23T15:37:57.462Z,26.00
2022-08-23T15:40:25.710Z,26.00
2022-08-23T15:42:53.253Z,26.00
2022-08-23T15:45:20.322Z,26.00
2022-08-23T15:47:49.119Z,26.00
2022-08-23T15:50:18.168Z,26.00
2022-08-23T15:52:45.177Z,26.00
2022-08-23T15:55:12.409Z,26.00
2022-08-23T15:57:50.773Z,26.00
2022-08-23T16:00:20.608Z,26.00
2022-08-23T16:03:18.217Z,26.00
2022-08-23T16:05:37.985Z,26.00
2022-08-23T16:08:06.460Z,26.00
2022-08-23T16:10:33.518Z,26.00
2022-08-23T16:13:00.712Z,26.00
2022-08-23T16:15:31.559Z,26.00
2022-08-23T16:17:58.672Z,26.00
2022-08-23T16:20:25.743Z,26.00
2022-08-23T16:22:53.063Z,26.00
2022-08-23T16:25:20.537Z,25.90
2022-08-23T16:27:47.844Z,25.90
2022-08-23T16:30:15.529Z,25.90
2022-08-23T16:32:42.636Z,25.90
2022-08-23T16:35:10.343Z,25.90
2022-08-23T16:37:37.244Z,25.90
2022-08-23T16:40:08.802Z,25.80
2022-08-23T16:42:36.875Z,25.80
2022-08-23T16:45:04.477Z,25.80
2022-08-23T16:47:37.513Z,25.80
2022-08-23T16:50:05.026Z,25.80
2022-08-23T16:52:34.743Z,25.80
2022-08-23T16:55:07.800Z,25.80
2022-08-23T16:57:35.027Z,25.80
2022-08-23T17:00:06.860Z,25.70
2022-08-23T17:02:36.234Z,25.70
2022-08-23T17:05:09.067Z,25.70
2022-08-23T17:07:36.027Z,25.60
2022-08-23T17:10:04.428Z,25.60
2022-08-23T17:12:41.140Z,25.60
2022-08-23T17:15:11.207Z,25.60
2022-08-23T17:17:38.059Z,25.60
2022-08-23T17:20:06.966Z,25.60
2022-08-23T17:22:35.127Z,25.60
2022-08-23T17:25:04.567Z,25.60
2022-08-23T17:27:31.783Z,25.50
2022-08-23T17:29:58.915Z,25.50
2022-08-23T17:32:25.956Z,25.50
2022-08-23T17:34:52.922Z,25.50
2022-08-23T17:37:22.215Z,25.40
2022-08-23T17:39:50.820Z,25.40
2022-08-23T17:42:21.331Z,25.30
2022-08-23T17:44:48.720Z,25.30
2022-08-23T17:47:18.032Z,25.30
2022-08-23T17:49:48.615Z,25.20
2022-08-23T17:52:19.212Z,25.20
2022-08-23T17:54:46.188Z,25.20
2022-08-23T17:57:13.255Z,25.10
2022-08-23T17:59:41.506Z,25.10
2022-08-23T18:02:08.656Z,25.10
2022-08-23T18:04:36.423Z,25.00
2022-08-23T18:07:04.889Z,25.00
2022-08-23T18:09:32.111Z,25.00
2022-08-23T18:11:59.518Z,24.90
2022-08-23T18:14:29.795Z,24.90
2022-08-23T18:16:57.351Z,24.90
2022-08-23T18:19:25.003Z,24.80
2022-08-23T18:21:52.246Z,24.80
2022-08-23T18:24:19.859Z,24.80
2022-08-23T18:27:05.981Z,24.70
2022-08-23T18:29:36.004Z,24.60
2022-08-23T18:32:04.810Z,24.60
2022-08-23T18:34:31.949Z,24.50
2022-08-23T18:36:59.312Z,24.50
2022-08-23T18:39:31.887Z,24.50
2022-08-23T18:42:04.110Z,24.40
2022-08-23T18:44:31.927Z,24.30
2022-08-23T18:47:00.744Z,24.30
2022-08-23T18:49:28.386Z,24.20
2022-08-23T18:51:56.567Z,24.20
2022-08-23T18:54:23.545Z,24.20
2022-08-23T18:56:50.665Z,24.10
2022-08-23T18:59:18.043Z,24.10
2022-08-23T19:01:45.399Z,24.10
2022-08-23T19:04:13.729Z,24.00
2022-08-23T19:06:41.226Z,23.90
2022-08-23T19:09:09.094Z,23.90
2022-08-23T19:11:41.067Z,23.90
2022-08-23T19:14:10.582Z,23.80
2022-08-23T19:16:47.212Z,23.80
2022-08-23T19:19:15.567Z,23.70
2022-08-23T19:21:42.513Z,23.70
2022-08-23T19:24:09.455Z,23.70
2022-08-23T19:26:36.603Z,23.60
2022-08-23T19:29:09.074Z,23.60
2022-08-23T19:31:42.623Z,23.60
2022-08-23T19:34:10.370Z,23.50
2022-08-23T19:36:56.710Z,23.50
2022-08-23T19:39:24.732Z,23.40
2022-08-23T19:41:54.531Z,23.40
2022-08-23T19:44:21.999Z,23.40
2022-08-23T19:46:49.245Z,23.30
2022-08-23T19:49:16.620Z,23.30
2022-08-23T19:51:44.942Z,23.30
2022-08-23T19:54:13.092Z,23.10
2022-08-23T19:56:57.477Z,23.10
2022-08-23T19:59:28.312Z,23.10
2022-08-23T20:01:56.897Z,23.00
2022-08-23T20:04:25.143Z,22.90
2022-08-23T20:06:52.074Z,22.90
2022-08-23T20:09:20.330Z,22.80
2022-08-23T20:11:47.200Z,22.80
2022-08-23T20:14:14.204Z,22.80
2022-08-23T20:16:42.105Z,22.80
2022-08-23T20:19:10.370Z,22.70
2022-08-23T20:21:38.657Z,22.60
2022-08-23T20:24:06.782Z,22.60
2022-08-23T20:26:52.179Z,22.50
2022-08-23T20:29:21.834Z,22.50
2022-08-23T20:31:59.647Z,22.50
2022-08-23T20:34:30.548Z,22.50
2022-08-23T20:36:57.706Z,22.40
2022-08-23T20:39:25.142Z,22.50
2022-08-23T20:41:53.467Z,22.40
2022-08-23T20:44:21.674Z,22.40
2022-08-23T20:46:53.709Z,22.40
2022-08-23T20:49:23.375Z,22.40
2022-08-23T20:51:50.813Z,22.40
2022-08-23T20:54:18.345Z,22.40
2022-08-23T20:56:45.434Z,22.40
2022-08-23T20:59:14.584Z,22.40
2022-08-23T21:01:41.649Z,22.40
2022-08-23T21:04:08.594Z,22.40
2022-08-23T21:06:47.061Z,22.40
2022-08-23T21:09:19.104Z,22.40
2022-08-23T21:11:48.118Z,22.40
2022-08-23T21:14:17.015Z,22.40
2022-08-23T21:16:44.778Z,22.40
2022-08-23T21:19:11.998Z,22.40
2022-08-23T21:21:40.790Z,22.40
2022-08-23T21:24:09.711Z,22.30
2022-08-23T21:26:37.080Z,22.30
2022-08-23T21:29:06.024Z,22.30
2022-08-23T21:31:33.582Z,22.20
2022-08-23T21:34:01.650Z,22.30
2022-08-23T21:36:29.372Z,22.20
2022-08-23T21:38:56.638Z,22.20
2022-08-23T21:41:36.311Z,22.20
2022-08-23T21:44:05.954Z,22.20
2022-08-23T21:46:33.538Z,22.20
2022-08-23T21:49:00.536Z,22.20
2022-08-23T21:51:28.892Z,22.20
2022-08-23T21:53:56.860Z,22.20
2022-08-23T21:56:23.806Z,22.20
2022-08-23T21:58:56.900Z,22.10
2022-08-23T22:01:23.866Z,22.20
2022-08-23T22:03:54.867Z,22.10
2022-08-23T22:06:24.333Z,22.10
2022-08-23T22:08:51.474Z,22.10
2022-08-23T22:11:18.777Z,22.10
2022-08-23T22:13:45.905Z,22.10
2022-08-23T22:16:12.993Z,22.00
2022-08-23T22:18:41.195Z,22.00
2022-08-23T22:21:08.996Z,22.00
2022-08-23T22:23:36.490Z,22.00
2022-08-23T22:26:06.242Z,22.00
2022-08-23T22:28:34.107Z,22.00
2022-08-23T22:31:02.992Z,22.00
2022-08-23T22:33:30.539Z,22.00
2022-08-23T22:36:10.676Z,22.00
2022-08-23T22:38:38.603Z,22.00
2022-08-23T22:41:06.423Z,22.00
2022-08-23T22:43:33.570Z,21.90
2022-08-23T22:46:02.852Z,21.90
2022-08-23T22:48:31.474Z,21.80
2022-08-23T22:51:04.523Z,21.80
2022-08-23T22:53:31.397Z,21.80
2022-08-23T22:55:58.661Z,21.80
2022-08-23T22:58:26.295Z,21.80
2022-08-23T23:00:53.349Z,21.80
2022-08-23T23:03:21.256Z,21.80
2022-08-23T23:05:49.365Z,21.80
2022-08-23T23:08:28.256Z,21.70
2022-08-23T23:11:00.937Z,21.80
2022-08-23T23:13:29.439Z,21.70
2022-08-23T23:15:57.575Z,21.70
2022-08-23T23:18:25.498Z,21.70
2022-08-23T23:20:57.793Z,21.70
2022-08-23T23:23:25.190Z,21.70
2022-08-23T23:25:52.583Z,21.70
2022-08-23T23:28:20.910Z,21.70
2022-08-23T23:30:50.491Z,21.70
2022-08-23T23:33:18.710Z,21.70
2022-08-23T23:35:47.575Z,21.70
2022-08-23T23:38:15.468Z,21.70
2022-08-23T23:40:43.648Z,21.70
2022-08-23T23:43:13.359Z,21.70
2022-08-23T23:45:42.442Z,21.60
2022-08-23T23:48:09.673Z,21.60
2022-08-23T23:50:42.439Z,21.60
2022-08-23T23:53:11.958Z,21.60
2022-08-23T23:55:38.828Z,21.60
2022-08-23T23:58:06.016Z,21.60
